Terminal Aerodrome Forecast
Issued by NWS Sioux Falls, SD

Home | Current Version | Previous Version | Graphics & Text | Print | Product List | Glossary Off
Versions: 1 2 3 4 5 6 7 8 9 10 11 12 13 14 15 16 17 18 19 20 21 22 23 24 25 26

000
FTUS43 KFSD 080532
TAFSUX
TAF
KSUX 080532Z 0806/0906 31017G24KT P6SM SCT025
     FM081800 31017G25KT P6SM SKC
     FM082100 31013G19KT P6SM SKC
     FM090000 31010KT P6SM SKC=

USA.gov is the U.S. government's official web portal to all federal, state and local government web resources and services.